Time;durP1;ratioP1;P1;durP2;ratioP2;P2;SDS_P1;SDS_P2;PMS_P1;PMS_P2;Temp;Humidity;BMP_temperature;BMP_pressure;BME280_temperature;BME280_humidity;BME280_pressure;Samples;Min_cycle;Max_cycle;Signal;HPM_P1;HPM_P2
2021/04/14 00:00:53;;;;;;;29.35;21.15;;;;;;;10.04;76.69;99627.28;1861620;75;22688;-63
2021/04/14 00:03:25;;;;;;;25.50;18.87;;;;;;;9.99;76.58;99628.39;1824533;77;21709;-64
2021/04/14 00:05:54;;;;;;;21.33;16.27;;;;;;;9.92;76.53;99626.45;1831682;77;22061;-64
2021/04/14 00:08:23;;;;;;;20.25;14.70;;;;;;;9.86;76.27;99631.96;1825869;76;21639;-65
2021/04/14 00:10:52;;;;;;;23.35;15.50;;;;;;;9.79;76.01;99634.43;1833051;76;21662;-65
2021/04/14 00:13:27;;;;;;;18.77;14.58;;;;;;;9.79;76.21;99633.12;1829171;77;21673;-64
2021/04/14 00:15:58;;;;;;;19.32;13.68;;;;;;;9.85;76.13;99632.86;1804334;77;21115;-65
2021/04/14 00:18:27;;;;;;;17.15;11.90;;;;;;;9.79;75.70;99636.59;1826263;76;22082;-66
2021/04/14 00:20:56;;;;;;;16.95;12.55;;;;;;;9.72;75.63;99637.31;1826413;76;21564;-69
2021/04/14 00:23:24;;;;;;;;;;;;;;;9.68;75.66;99637.03;1838870;77;21631;-65
2021/04/14 00:25:54;;;;;;;22.45;11.68;;;;;;;9.66;75.76;99634.05;1838071;77;20564;-65
2021/04/14 00:28:24;;;;;;;11.93;9.60;;;;;;;9.59;75.75;99634.77;1763300;79;21639;-66
2021/04/14 00:30:53;;;;;;;19.27;11.15;;;;;;;9.66;75.71;99628.37;1794411;78;21960;-65
2021/04/14 00:33:22;;;;;;;16.32;10.80;;;;;;;9.68;75.49;99626.53;1789703;78;21666;-65
2021/04/14 00:35:53;;;;;;;17.50;10.65;;;;;;;9.66;75.36;99630.12;1794213;78;21632;-64
2021/04/14 00:38:22;;;;;;;14.15;10.30;;;;;;;9.64;75.10;99626.23;1789167;78;21658;-66
2021/04/14 00:40:58;;;;;;;13.78;11.03;;;;;;;9.57;74.88;99624.78;1754202;78;21612;-63
2021/04/14 00:43:32;;;;;;;14.73;10.48;;;;;;;9.52;74.89;99627.57;1772076;79;21822;-64
2021/04/14 00:46:01;;;;;;;13.72;10.68;;;;;;;9.60;75.08;99624.64;1787951;78;21529;-65
2021/04/14 00:48:31;;;;;;;13.53;9.48;;;;;;;9.69;74.76;99628.69;1798718;78;21528;-63
2021/04/14 00:51:01;;;;;;;15.83;10.15;;;;;;;9.66;74.67;99627.48;1773802;80;21611;-63
2021/04/14 00:53:30;;;;;;;18.55;10.53;;;;;;;9.64;74.58;99621.45;1768472;79;21568;-64
2021/04/14 00:56:00;;;;;;;18.20;9.78;;;;;;;9.59;74.35;99616.39;1773434;79;21942;-63
2021/04/14 00:58:28;;;;;;;13.48;10.05;;;;;;;9.50;74.48;99615.44;1779450;79;21602;-64
2021/04/14 01:04:03;;;;;;;14.85;9.70;;;;;;;9.62;74.61;99613.63;1744612;79;23194;-67
2021/04/14 01:06:32;;;;;;;16.95;10.88;;;;;;;9.53;74.56;99612.23;1721632;82;21166;-71
2021/04/14 01:09:00;;;;;;;12.70;10.55;;;;;;;9.44;74.44;99597.31;1713915;81;22128;-65
2021/04/14 01:11:30;;;;;;;;;;;;;;;9.45;74.46;99605.09;1716142;80;21511;-66
2021/04/14 01:13:57;;;;;;;15.58;10.58;;;;;;;9.43;74.52;99603.45;1714151;80;20543;-64
2021/04/14 01:16:27;;;;;;;20.65;10.40;;;;;;;9.43;74.68;99609.55;1725999;82;21865;-66
2021/04/14 01:18:57;;;;;;;15.25;9.68;;;;;;;9.51;74.47;99606.63;1715331;80;21615;-65
2021/04/14 01:21:41;;;;;;;14.18;9.65;;;;;;;9.47;74.44;99603.73;1729370;80;21563;-63
2021/04/14 01:24:14;;;;;;;13.08;9.65;;;;;;;9.44;74.40;99605.19;1722544;80;21678;-66
2021/04/14 01:26:41;;;;;;;14.38;10.55;;;;;;;9.47;74.23;99609.83;1714272;82;21671;-65
2021/04/14 01:29:12;;;;;;;11.12;9.18;;;;;;;9.43;74.13;99605.62;1715416;82;21553;-64
2021/04/14 01:31:41;;;;;;;11.03;8.83;;;;;;;9.50;74.49;99607.56;1720441;80;21601;-65
2021/04/14 01:34:14;;;;;;;12.60;10.00;;;;;;;9.61;74.29;99614.56;1712362;80;21582;-67
2021/04/14 01:36:42;;;;;;;11.73;9.65;;;;;;;9.61;74.22;99610.62;1714921;80;21632;-64
2021/04/14 01:39:12;;;;;;;17.30;10.90;;;;;;;9.61;74.00;99609.31;1714764;80;21694;-66
2021/04/14 01:41:41;;;;;;;13.05;9.85;;;;;;;9.57;73.90;99601.16;1717410;80;21612;-64
2021/04/14 01:44:10;;;;;;;21.07;10.55;;;;;;;9.59;73.81;99605.02;1719109;82;21577;-64
2021/04/14 01:46:42;;;;;;;15.53;10.13;;;;;;;9.55;73.68;99606.94;1720479;80;21700;-64
2021/04/14 01:49:11;;;;;;;14.55;10.13;;;;;;;9.58;73.95;99599.38;1657001;83;21665;-65
2021/04/14 01:51:39;;;;;;;11.90;9.75;;;;;;;9.64;73.83;99596.04;1678927;82;21555;-65
2021/04/14 01:54:09;;;;;;;15.03;10.53;;;;;;;9.63;73.76;99593.04;1676443;84;21612;-68
2021/04/14 01:56:41;;;;;;;15.43;11.18;;;;;;;9.60;73.74;99593.61;1671933;82;21865;-64
2021/04/14 01:59:12;;;;;;;17.12;11.25;;;;;;;9.57;73.63;99591.09;1715439;80;21678;-64
2021/04/14 02:01:43;;;;;;;16.75;11.68;;;;;;;9.50;73.68;99590.50;1722343;80;21555;-69
2021/04/14 02:04:14;;;;;;;14.93;10.08;;;;;;;9.43;73.79;99578.06;1674176;82;21613;-64
2021/04/14 02:07:03;;;;;;;16.50;11.28;;;;;;;9.50;73.93;99574.75;1714559;80;21762;-63
2021/04/14 02:10:27;;;;;;;15.85;10.85;;;;;;;9.59;73.71;99572.20;1713885;82;21754;-63
2021/04/14 02:21:31;;;;;;;14.40;10.43;;;;;;;9.50;73.17;99577.38;1715558;81;21581;-63
2021/04/14 02:28:40;;;;;;;13.45;10.50;;;;;;;9.40;73.09;99569.45;1710493;80;21187;-63
2021/04/14 02:31:31;;;;;;;15.28;10.38;;;;;;;9.28;72.87;99567.70;1713364;80;21930;-63
2021/04/14 02:45:45;;;;;;;11.88;9.20;;;;;;;8.63;73.42;99574.52;1809242;77;22801;-62
2021/04/14 02:48:12;;;;;;;;;;;;;;;8.63;73.52;99572.36;1795826;79;21048;-62
2021/04/14 02:50:40;;;;;;;13.00;9.65;;;;;;;8.62;73.74;99581.11;1783088;78;21939;-62
2021/04/14 02:53:09;;;;;;;15.05;9.38;;;;;;;8.52;73.77;99581.90;1745810;80;28020;-63
2021/04/14 02:55:37;;;;;;;14.35;9.80;;;;;;;8.45;73.84;99583.87;1757281;80;21636;-62
2021/04/14 02:58:05;;;;;;;12.53;9.83;;;;;;;8.40;73.67;99587.09;1757262;80;21560;-62
2021/04/14 03:00:34;;;;;;;16.25;10.13;;;;;;;8.32;73.50;99585.17;1733962;80;21642;-62
2021/04/14 03:03:03;;;;;;;10.43;9.20;;;;;;;8.24;73.59;99587.20;1761676;80;21536;-61
2021/04/14 03:05:33;;;;;;;12.65;9.38;;;;;;;8.24;73.85;99590.67;1712117;81;21624;-61
2021/04/14 03:08:02;;;;;;;10.08;9.05;;;;;;;8.32;73.88;99586.02;1732051;80;21196;-62
2021/04/14 03:10:33;;;;;;;11.48;9.40;;;;;;;8.29;73.81;99594.00;1741011;80;21580;-64
2021/04/14 03:13:02;;;;;;;13.05;9.23;;;;;;;8.25;73.85;99591.09;1717943;81;21606;-64
2021/04/14 03:15:38;;;;;;;13.08;10.10;;;;;;;8.22;73.76;99591.19;1714941;82;21905;-64
2021/04/14 03:18:08;;;;;;;14.83;10.75;;;;;;;8.14;73.81;99588.83;1735364;81;21499;-63
2021/04/14 03:20:38;;;;;;;11.85;9.53;;;;;;;8.11;73.72;99593.31;1727776;81;21677;-63
2021/04/14 03:23:07;;;;;;;12.63;9.43;;;;;;;8.15;73.97;99585.75;1740344;81;21656;-64
2021/04/14 03:25:36;;;;;;;11.45;8.93;;;;;;;8.27;73.86;99592.32;1737294;81;21658;-63
2021/04/14 03:28:05;;;;;;;14.78;9.20;;;;;;;8.26;73.82;99578.84;1729573;81;22006;-64
2021/04/14 03:30:35;;;;;;;12.78;9.80;;;;;;;8.25;73.75;99582.36;1746809;79;21635;-64
2021/04/14 03:33:03;;;;;;;12.33;9.38;;;;;;;8.21;73.63;99578.13;1749771;80;21127;-71
2021/04/14 03:35:32;;;;;;;13.15;8.80;;;;;;;8.16;73.56;99565.21;1764431;80;21598;-63
2021/04/14 03:38:01;;;;;;;11.50;8.78;;;;;;;8.19;73.32;99571.20;1727993;82;21597;-64
2021/04/14 03:40:29;;;;;;;13.08;8.60;;;;;;;8.20;73.14;99574.67;1759541;80;22029;-62
2021/04/14 03:43:19;;;;;;;10.28;8.20;;;;;;;8.26;73.08;99577.06;1725361;81;21686;-64
2021/04/14 03:45:50;;;;;;;13.13;8.23;;;;;;;8.41;72.71;99574.84;1683753;82;21702;-64
2021/04/14 03:48:17;;;;;;;11.15;7.97;;;;;;;8.42;72.38;99572.63;1697938;81;21648;-64
2021/04/14 03:50:45;;;;;;;13.88;8.65;;;;;;;8.44;72.04;99570.81;1692068;83;21662;-66
2021/04/14 03:53:24;;;;;;;11.45;8.43;;;;;;;8.41;71.62;99574.37;1692629;83;22091;-64
2021/04/14 03:56:02;;;;;;;13.05;8.28;;;;;;;8.39;71.55;99573.11;1692939;82;21624;-66
2021/04/14 03:58:31;;;;;;;11.43;8.53;;;;;;;8.38;71.16;99574.04;1685407;83;21592;-65
2021/04/14 04:01:03;;;;;;;11.55;8.03;;;;;;;8.36;70.90;99581.53;1691304;83;21596;-65
2021/04/14 04:03:33;;;;;;;16.02;8.78;;;;;;;8.37;70.84;99581.95;1665422;84;21644;-64
2021/04/14 04:06:02;;;;;;;10.90;8.18;;;;;;;8.38;70.64;99585.83;1660471;84;21903;-65
2021/04/14 04:08:30;;;;;;;11.20;7.70;;;;;;;8.47;70.79;99586.44;1667519;84;21657;-67
2021/04/14 04:10:58;;;;;;;10.70;8.43;;;;;;;8.57;70.23;99578.67;1687918;83;21637;-70
2021/04/14 04:13:30;;;;;;;14.63;7.72;;;;;;;8.57;69.83;99579.52;1693385;82;21662;-67
2021/04/14 04:15:58;;;;;;;8.78;7.87;;;;;;;8.52;68.90;99577.50;1690930;82;21185;-63
2021/04/14 04:18:28;;;;;;;14.40;7.97;;;;;;;8.54;68.95;99587.47;1690182;82;22155;-65
2021/04/14 04:20:57;;;;;;;11.78;8.18;;;;;;;8.55;68.45;99581.77;1691248;82;21174;-65
2021/04/14 04:23:25;;;;;;;11.18;8.78;;;;;;;8.56;68.41;99585.66;1678968;82;21682;-68
2021/04/14 04:25:54;;;;;;;9.80;7.65;;;;;;;8.62;68.33;99583.27;1689739;82;21678;-66
2021/04/14 04:28:23;;;;;;;11.63;9.15;;;;;;;8.68;68.19;99579.14;1690446;82;21626;-64
2021/04/14 04:30:51;;;;;;;11.70;8.15;;;;;;;8.71;68.11;99575.55;1688668;84;22061;-65
2021/04/14 04:33:20;;;;;;;11.57;9.68;;;;;;;8.71;68.25;99572.45;1690044;82;21976;-64
2021/04/14 04:35:49;;;;;;;13.62;10.10;;;;;;;8.69;68.01;99573.44;1685974;84;21687;-66
2021/04/14 04:38:17;;;;;;;11.60;8.45;;;;;;;8.59;67.84;99557.19;1691703;82;21650;-63
2021/04/14 04:40:45;;;;;;;16.52;11.45;;;;;;;8.73;67.59;99576.34;1687193;84;21499;-63
2021/04/14 04:43:15;;;;;;;20.10;12.00;;;;;;;8.75;67.44;99580.61;1689585;82;21661;-70
2021/04/14 04:45:44;;;;;;;17.23;10.95;;;;;;;8.75;67.40;99583.69;1678752;84;21697;-62
2021/04/14 04:48:11;;;;;;;16.17;10.20;;;;;;;8.82;67.46;99595.67;1681854;84;21655;-64
2021/04/14 04:50:40;;;;;;;14.13;9.70;;;;;;;8.93;67.28;99594.83;1652263;84;21606;-64
2021/04/14 04:53:19;;;;;;;11.55;9.75;;;;;;;8.95;67.13;99595.62;1674675;84;21645;-66
2021/04/14 04:55:48;;;;;;;9.98;8.80;;;;;;;8.96;67.04;99598.63;1680693;82;22066;-64
2021/04/14 04:58:39;;;;;;;12.85;9.98;;;;;;;8.99;66.79;99596.36;1678538;82;21190;-65
2021/04/14 05:01:10;;;;;;;14.20;9.43;;;;;;;9.01;66.49;99598.47;1664064;84;21152;-66
2021/04/14 05:03:43;;;;;;;11.85;9.35;;;;;;;9.01;66.15;99593.69;1644316;85;21601;-65
2021/04/14 05:06:12;;;;;;;13.10;9.38;;;;;;;9.01;65.93;99600.25;1665124;83;21672;-64
2021/04/14 05:08:43;;;;;;;14.90;9.28;;;;;;;9.00;65.66;99599.37;1669781;83;21579;-63
2021/04/14 05:11:15;;;;;;;9.80;8.60;;;;;;;8.99;65.49;99598.14;1667400;83;21602;-63
2021/04/14 05:13:43;;;;;;;13.80;9.40;;;;;;;9.00;65.36;99601.14;1678665;83;21619;-63
2021/04/14 05:16:15;;;;;;;13.90;9.60;;;;;;;9.01;65.27;99605.03;1670851;83;21616;-63
2021/04/14 05:18:44;;;;;;;12.98;9.50;;;;;;;9.03;65.31;99603.66;1679894;83;21656;-66
2021/04/14 05:21:12;;;;;;;12.33;9.88;;;;;;;9.03;65.17;99607.13;1677121;83;21938;-59
2021/04/14 05:23:42;;;;;;;16.07;9.90;;;;;;;9.04;64.85;99605.36;1671231;84;21147;-59
2021/04/14 05:26:10;;;;;;;13.28;9.05;;;;;;;9.02;64.56;99605.41;1672441;83;21646;-58
2021/04/14 05:28:38;;;;;;;11.78;8.83;;;;;;;9.03;64.24;99604.52;1677093;82;21687;-60
2021/04/14 05:31:07;;;;;;;15.03;9.05;;;;;;;9.01;64.37;99605.03;1684283;82;21660;-61
2021/04/14 05:33:36;;;;;;;14.05;9.13;;;;;;;9.02;64.28;99605.41;1689320;82;22112;-61
2021/04/14 05:36:07;;;;;;;9.68;8.50;;;;;;;9.04;64.17;99609.30;1694239;82;21190;-62
2021/04/14 05:38:36;;;;;;;10.82;8.35;;;;;;;9.06;63.88;99608.78;1673380;83;21280;-63
2021/04/14 05:41:04;;;;;;;11.45;9.08;;;;;;;9.08;63.78;99608.27;1659616;83;21712;-64
2021/04/14 05:43:38;;;;;;;12.68;9.23;;;;;;;9.10;63.88;99603.38;1677166;83;21259;-64
2021/04/14 05:46:09;;;;;;;13.55;9.98;;;;;;;9.10;63.85;99606.00;1687282;82;22083;-62
2021/04/14 05:48:39;;;;;;;13.48;9.73;;;;;;;9.13;63.82;99599.77;1712793;81;21601;-65
2021/04/14 05:51:14;;;;;;;11.45;8.40;;;;;;;9.14;63.61;99602.34;1714158;81;21588;-62
2021/04/14 05:53:42;;;;;;;12.60;9.60;;;;;;;9.16;63.57;99595.73;1672174;83;21692;-64
2021/04/14 05:56:10;;;;;;;12.75;9.05;;;;;;;9.16;63.41;99599.67;1685915;82;21633;-64
2021/04/14 05:58:41;;;;;;;11.63;9.40;;;;;;;9.19;63.51;99596.06;1717201;81;22208;-63
2021/04/14 06:01:10;;;;;;;16.05;10.82;;;;;;;9.19;63.48;99596.91;1711182;81;21702;-63
2021/04/14 06:03:39;;;;;;;13.88;10.90;;;;;;;9.21;63.53;99599.05;1714146;81;22200;-64
2021/04/14 06:06:07;;;;;;;14.38;11.18;;;;;;;9.26;63.64;99602.80;1713305;81;21623;-63
2021/04/14 06:08:37;;;;;;;16.48;11.57;;;;;;;9.25;63.72;99599.75;1686412;83;21976;-63
2021/04/14 06:11:06;;;;;;;;;;;;;;;9.28;63.58;99595.25;1679104;83;22217;-65
2021/04/14 06:13:35;;;;;;;15.20;10.68;;;;;;;9.27;63.29;99601.42;1677471;83;20613;-67
2021/04/14 06:16:05;;;;;;;13.98;9.80;;;;;;;9.26;63.17;99597.08;1675403;83;21589;-61
2021/04/14 06:18:34;;;;;;;13.98;10.18;;;;;;;9.27;62.80;99595.34;1653629;83;21666;-65
2021/04/14 06:21:04;;;;;;;13.38;10.20;;;;;;;9.26;62.50;99588.36;1715437;81;21662;-63
2021/04/14 06:23:34;;;;;;;12.73;9.80;;;;;;;9.23;62.75;99593.72;1710526;81;21969;-63
2021/04/14 06:28:38;;;;;;;14.87;10.63;;;;;;;9.32;62.59;99592.94;1669574;82;21568;-62
2021/04/14 06:31:08;;;;;;;17.73;11.05;;;;;;;9.37;62.54;99591.89;1704388;83;21548;-67
2021/04/14 06:33:39;;;;;;;22.80;12.00;;;;;;;9.43;62.75;99597.74;1709961;83;21644;-59
2021/04/14 06:36:09;;;;;;;15.18;11.60;;;;;;;9.47;62.78;99592.77;1701825;81;21894;-60
2021/04/14 06:38:44;;;;;;;15.65;11.43;;;;;;;9.50;62.64;99597.06;1703323;81;21169;-60
2021/04/14 06:44:11;;;;;;;16.45;12.23;;;;;;;9.52;62.71;99605.73;1698746;81;21902;-61
2021/04/14 06:46:41;;;;;;;16.85;12.05;;;;;;;9.58;62.67;99602.01;1683913;81;21146;-61
2021/04/14 06:49:43;;;;;;;15.72;12.35;;;;;;;9.63;62.56;99606.63;1708590;81;22513;-62
2021/04/14 06:52:16;;;;;;;14.45;11.00;;;;;;;9.66;62.41;99601.23;1705601;81;21623;-62
2021/04/14 06:54:51;;;;;;;16.70;10.58;;;;;;;9.68;61.90;99603.34;1708541;81;21189;-61
2021/04/14 06:57:26;;;;;;;15.70;10.63;;;;;;;9.64;61.80;99605.23;1678916;82;21738;-61
2021/04/14 07:00:11;;;;;;;16.52;10.55;;;;;;;9.63;61.41;99601.38;1677897;83;21603;-62
2021/04/14 07:03:07;;;;;;;12.95;10.20;;;;;;;9.67;61.30;99608.21;1661021;83;22126;-62
2021/04/14 07:05:46;;;;;;;12.60;10.58;;;;;;;9.72;61.15;99609.73;1714352;81;21576;-60
2021/04/14 07:08:27;;;;;;;15.68;10.53;;;;;;;9.80;61.03;99615.15;1715451;81;21740;-62
2021/04/14 07:10:57;;;;;;;14.35;11.20;;;;;;;9.84;60.52;99607.07;1713937;81;21578;-61
2021/04/14 07:13:27;;;;;;;16.87;12.15;;;;;;;9.90;60.25;99606.81;1716001;81;21616;-63
2021/04/14 07:16:31;;;;;;;18.75;12.10;;;;;;;10.00;60.09;99607.32;1681558;81;22473;-60
2021/04/14 07:19:29;;;;;;;18.62;13.45;;;;;;;10.14;60.01;99608.90;1670994;83;21616;-61
2021/04/14 07:22:16;;;;;;;16.85;12.82;;;;;;;10.31;60.03;99613.95;1637877;85;21680;-63
2021/04/14 07:24:52;;;;;;;14.73;12.90;;;;;;;10.48;59.97;99614.08;1637420;85;21730;-58
2021/04/14 07:28:00;;;;;;;21.20;12.18;;;;;;;10.63;59.67;99612.56;1675161;83;21643;-58
2021/04/14 07:31:17;;;;;;;16.45;12.70;;;;;;;10.77;59.79;99602.75;1684848;83;21931;-60
2021/04/14 07:34:00;;;;;;;17.42;12.15;;;;;;;10.88;58.92;99602.28;1596394;88;25614;-58
2021/04/14 07:36:54;;;;;;;16.57;12.15;;;;;;;10.95;57.89;99602.40;1621108;86;21635;-59
2021/04/14 07:39:46;;;;;;;12.85;11.12;;;;;;;11.04;58.33;99602.46;1620852;86;21661;-59
2021/04/14 07:42:43;;;;;;;15.72;11.18;;;;;;;11.17;58.00;99596.14;1549919;87;21593;-58
2021/04/14 07:45:19;;;;;;;15.55;10.63;;;;;;;11.29;57.50;99596.91;1615067;86;22614;-59
2021/04/14 07:47:56;;;;;;;13.38;10.60;;;;;;;11.40;56.55;99593.79;1618992;86;21725;-60
2021/04/14 07:50:35;;;;;;;17.98;11.60;;;;;;;11.48;56.13;99596.90;1602792;87;21650;-60
2021/04/14 07:53:23;;;;;;;21.30;11.95;;;;;;;11.57;56.13;99592.98;1619269;86;21717;-60
2021/04/14 07:56:16;;;;;;;17.40;12.18;;;;;;;11.68;56.06;99598.13;1619288;87;21687;-61
2021/04/14 07:58:45;;;;;;;19.15;10.90;;;;;;;11.85;56.26;99588.09;1617256;86;22053;-59
2021/04/14 08:01:27;;;;;;;13.90;11.68;;;;;;;12.06;55.75;99602.48;1614370;86;21666;-60
2021/04/14 08:04:21;;;;;;;17.73;11.93;;;;;;;12.18;55.55;99602.33;1619519;86;21680;-60
2021/04/14 08:06:51;;;;;;;15.05;11.38;;;;;;;12.23;54.70;99600.33;1695705;81;21682;-59
2021/04/14 08:09:21;;;;;;;;;;;;;;;12.19;54.26;99602.73;1727488;81;21579;-58
2021/04/14 08:11:50;;;;;;;17.82;11.50;;;;;;;12.11;53.46;99603.56;1695424;82;20815;-60
2021/04/14 08:14:36;;;;;;;14.65;12.07;;;;;;;12.02;54.39;99603.57;1722282;81;21579;-59
2021/04/14 08:17:35;;;;;;;17.92;11.70;;;;;;;12.00;54.17;99601.48;1726399;80;21680;-61
2021/04/14 08:20:45;;;;;;;17.75;11.85;;;;;;;12.05;54.66;99601.64;1667901;82;21635;-60
2021/04/14 08:23:23;;;;;;;19.40;11.68;;;;;;;12.10;54.68;99597.92;1721549;81;21612;-60
2021/04/14 08:25:57;;;;;;;15.20;12.13;;;;;;;12.18;54.67;99595.27;1697644;82;21690;-61
2021/04/14 08:31:49;;;;;;;15.40;11.83;;;;;;;12.38;53.84;99589.47;1817235;77;22252;-58
2021/04/14 08:34:29;;;;;;;14.43;11.25;;;;;;;12.39;53.96;99595.12;1774025;78;21659;-60
2021/04/14 08:37:19;;;;;;;15.08;11.33;;;;;;;12.45;53.41;99589.08;1777021;78;22490;-60
2021/04/14 08:40:03;;;;;;;17.10;11.88;;;;;;;12.51;53.31;99583.08;1783200;78;21540;-60
2021/04/14 08:42:34;;;;;;;17.12;12.65;;;;;;;12.60;53.28;99582.16;1775303;78;21571;-63
2021/04/14 08:45:10;;;;;;;13.98;11.93;;;;;;;12.70;53.18;99573.77;1782669;79;21675;-61
2021/04/14 08:47:44;;;;;;;17.73;10.98;;;;;;;12.75;52.23;99575.23;1783934;78;21564;-60
2021/04/14 08:50:18;;;;;;;16.42;10.72;;;;;;;12.87;52.29;99579.47;1779510;78;22173;-62
2021/04/14 08:52:52;;;;;;;12.82;10.82;;;;;;;12.96;51.99;99575.87;1782212;78;21564;-65
2021/04/14 08:55:23;;;;;;;13.90;10.30;;;;;;;13.04;52.05;99571.49;1725540;80;21630;-62
2021/04/14 08:57:53;;;;;;;13.13;10.35;;;;;;;13.09;51.61;99568.14;1769306;78;21654;-62
2021/04/14 09:00:22;;;;;;;14.40;10.58;;;;;;;13.11;51.02;99553.52;1775180;79;21578;-61
2021/04/14 09:02:55;;;;;;;13.62;10.68;;;;;;;13.13;51.21;99561.76;1712321;81;21897;-62
2021/04/14 09:05:24;;;;;;;12.55;10.60;;;;;;;13.10;50.81;99559.75;1781228;79;21644;-64
2021/04/14 09:07:54;;;;;;;15.35;9.98;;;;;;;13.06;49.96;99553.78;1778917;78;21604;-64
2021/04/14 09:10:58;;;;;;;14.58;10.28;;;;;;;13.01;50.01;99547.42;1772383;79;21111;-63
2021/04/14 09:13:48;;;;;;;12.98;10.53;;;;;;;13.02;50.11;99545.18;1773856;79;21643;-60
2021/04/14 09:16:38;;;;;;;13.00;10.13;;;;;;;13.09;49.75;99539.55;1666705;82;21956;-60
2021/04/14 09:19:30;;;;;;;11.73;9.68;;;;;;;13.13;50.00;99532.72;1751760;79;21170;-61
2021/04/14 09:22:18;;;;;;;10.48;8.80;;;;;;;13.21;49.61;99525.70;1773697;78;21680;-63
2021/04/14 09:24:58;;;;;;;11.85;10.18;;;;;;;13.24;49.47;99525.50;1774477;78;21544;-66
2021/04/14 09:27:49;;;;;;;18.32;10.63;;;;;;;13.32;48.97;99522.50;1748038;79;21536;-60
2021/04/14 09:30:40;;;;;;;15.03;10.30;;;;;;;13.41;49.39;99517.55;1772072;78;21595;-62
2021/04/14 09:33:18;;;;;;;12.05;10.18;;;;;;;13.53;49.32;99509.39;1777898;79;21667;-64
2021/04/14 09:35:53;;;;;;;11.33;9.93;;;;;;;13.70;49.35;99506.25;1785730;79;21571;-65
2021/04/14 09:38:34;;;;;;;12.18;9.55;;;;;;;13.82;49.39;99499.80;1777556;79;21139;-64
2021/04/14 09:41:13;;;;;;;16.05;10.40;;;;;;;13.98;49.80;99494.44;1783720;79;22221;-67
2021/04/14 09:43:45;;;;;;;12.55;9.38;;;;;;;14.14;49.26;99485.59;1787006;79;21666;-65
2021/04/14 09:46:55;;;;;;;13.25;10.23;;;;;;;14.28;49.11;99484.30;1779928;79;21143;-65
2021/04/14 09:49:42;;;;;;;16.95;10.53;;;;;;;14.41;48.99;99487.89;1733624;80;21711;-65
2021/04/14 09:52:30;;;;;;;11.57;10.38;;;;;;;14.54;48.63;99472.12;1735214;81;21199;-65
2021/04/14 09:55:12;;;;;;;14.20;10.43;;;;;;;14.65;48.78;99472.79;1731246;81;21702;-62
2021/04/14 09:57:43;;;;;;;15.45;10.32;;;;;;;14.82;49.00;99470.89;1733190;81;22345;-62
2021/04/14 10:00:27;;;;;;;14.07;10.40;;;;;;;15.02;48.84;99474.45;1738255;80;21642;-63
2021/04/14 10:03:12;;;;;;;15.13;10.35;;;;;;;15.20;48.39;99471.11;1731883;80;21686;-64
2021/04/14 10:05:42;;;;;;;11.83;9.80;;;;;;;15.30;48.20;99465.57;1732684;80;21701;-65
2021/04/14 10:08:11;;;;;;;12.13;9.40;;;;;;;15.35;44.58;99459.51;1731433;80;21699;-64
2021/04/14 10:13:22;;;;;;;15.15;9.43;;;;;;;15.47;46.98;99455.68;1805606;76;23258;-59
2021/04/14 10:15:49;;;;;;;12.37;9.33;;;;;;;15.52;46.66;99451.77;1738076;78;21595;-59
2021/04/14 10:18:24;;;;;;;14.70;9.68;;;;;;;15.58;46.62;99442.56;1773076;77;21969;-59
2021/04/14 10:20:54;;;;;;;11.03;9.23;;;;;;;15.66;46.53;99440.24;1758234;77;21649;-59
2021/04/14 10:23:25;;;;;;;12.25;8.35;;;;;;;15.71;45.49;99436.81;1739869;79;21143;-58
2021/04/14 10:26:04;;;;;;;10.28;7.90;;;;;;;15.70;45.73;99430.28;1740273;79;21623;-59
2021/04/14 10:28:34;;;;;;;11.60;8.38;;;;;;;15.69;45.47;99435.20;1719159;80;21668;-60
2021/04/14 10:31:05;;;;;;;;;;;;;;;15.69;45.20;99433.88;1720797;80;21914;-68
2021/04/14 10:33:33;;;;;;;8.15;7.03;;;;;;;15.65;42.51;99426.63;1720765;80;20428;-62
2021/04/14 10:36:24;;;;;;;10.00;7.58;;;;;;;15.67;44.02;99422.08;1742723;81;21684;-66
2021/04/14 10:38:54;;;;;;;10.00;7.35;;;;;;;15.76;43.96;99422.81;1745988;79;21753;-63
2021/04/14 10:41:24;;;;;;;;;;;;;;;16.03;43.62;99417.91;1721856;80;21559;-65
2021/04/14 10:43:54;;;;;;;9.65;6.60;;;;;;;16.31;41.97;99414.63;1687925;80;21784;-63
2021/04/14 10:46:39;;;;;;;8.18;6.97;;;;;;;16.53;42.21;99420.61;1740489;79;22019;-62
2021/04/14 10:49:51;;;;;;;8.95;6.65;;;;;;;16.70;41.47;99414.93;1725342;81;21650;-62
2021/04/14 10:52:41;;;;;;;10.88;6.97;;;;;;;16.95;40.60;99407.88;1682406;82;21239;-62
2021/04/14 10:55:13;;;;;;;14.78;6.53;;;;;;;17.20;39.98;99408.27;1704586;82;21636;-65
2021/04/14 10:57:50;;;;;;;7.40;6.50;;;;;;;17.40;39.84;99404.59;1706130;82;21587;-64
2021/04/14 11:00:38;;;;;;;11.73;6.45;;;;;;;17.60;39.41;99410.59;1691211;82;21146;-62
2021/04/14 11:03:44;;;;;;;12.05;7.00;;;;;;;17.77;38.18;99413.79;1704489;82;21623;-63
2021/04/14 11:06:25;;;;;;;7.40;6.20;;;;;;;17.76;37.01;99401.44;1699604;82;21949;-61
2021/04/14 11:08:54;;;;;;;7.28;5.97;;;;;;;17.69;37.91;99406.40;1699364;82;21590;-63
2021/04/14 11:11:23;;;;;;;8.23;6.50;;;;;;;17.72;37.72;99411.47;1666907;83;22155;-66
2021/04/14 11:13:52;;;;;;;7.67;6.30;;;;;;;17.75;37.56;99407.25;1688413;82;21536;-64
2021/04/14 11:16:49;;;;;;;7.50;6.72;;;;;;;17.78;37.41;99404.83;1705470;81;22064;-61
2021/04/14 11:19:52;;;;;;;9.88;6.40;;;;;;;17.73;37.39;99403.03;1695155;82;21677;-68
2021/04/14 11:22:21;;;;;;;17.45;6.85;;;;;;;17.74;37.82;99394.91;1667853;82;21173;-61
2021/04/14 11:24:54;;;;;;;;;;;;;;;17.90;38.00;99399.45;1700148;81;21843;-68
2021/04/14 11:27:28;;;;;;;10.50;5.97;;;;;;;18.08;36.28;99401.64;1682367;83;20421;-62
2021/04/14 11:30:19;;;;;;;7.83;5.83;;;;;;;18.24;37.77;99394.17;1603178;86;21626;-62
2021/04/14 11:32:55;;;;;;;10.28;6.87;;;;;;;18.45;37.52;99384.13;1613417;86;21665;-61
2021/04/14 11:35:37;;;;;;;10.65;6.95;;;;;;;18.67;37.36;99386.76;1612955;86;21625;-64
2021/04/14 11:38:40;;;;;;;13.40;7.03;;;;;;;18.74;34.44;99378.27;1792081;76;28438;-62
2021/04/14 11:41:17;;;;;;;9.88;5.97;;;;;;;18.73;35.28;99377.92;1784266;77;21595;-65
2021/04/14 11:43:46;;;;;;;8.75;5.92;;;;;;;18.81;36.20;99378.17;1791890;77;22303;-63
2021/04/14 11:46:36;;;;;;;9.73;5.72;;;;;;;18.86;36.04;99378.66;1788798;77;21571;-63
2021/04/14 11:49:11;;;;;;;9.10;5.50;;;;;;;18.91;36.14;99379.12;1783684;77;21630;-63
2021/04/14 11:51:42;;;;;;;8.70;5.92;;;;;;;18.90;35.94;99377.42;1781546;79;21647;-63
2021/04/14 11:54:30;;;;;;;8.30;6.00;;;;;;;18.82;35.98;99373.22;1782113;77;21550;-63
2021/04/14 11:57:13;;;;;;;8.38;5.80;;;;;;;18.71;35.88;99367.39;1776268;77;21905;-63
2021/04/14 11:59:54;;;;;;;7.22;5.47;;;;;;;18.54;35.97;99359.92;1780291;77;21589;-63
2021/04/14 12:02:39;;;;;;;8.03;6.17;;;;;;;18.40;36.22;99361.88;1784449;77;21621;-61
2021/04/14 12:05:16;;;;;;;12.43;6.17;;;;;;;18.26;36.41;99358.13;1702575;80;22050;-61
2021/04/14 12:07:48;;;;;;;9.95;5.80;;;;;;;18.12;36.51;99353.04;1704821;79;21572;-63
2021/04/14 12:10:35;;;;;;;7.30;5.80;;;;;;;18.00;36.63;99358.84;1788625;77;22388;-61
2021/04/14 12:13:14;;;;;;;12.30;6.37;;;;;;;17.86;36.21;99367.42;1766347;79;21646;-62
2021/04/14 12:15:51;;;;;;;8.78;6.15;;;;;;;17.66;36.80;99360.94;1779969;77;21611;-62
2021/04/14 12:18:21;;;;;;;8.05;6.03;;;;;;;17.58;37.08;99361.17;1790820;77;21567;-63
2021/04/14 12:20:54;;;;;;;11.75;5.92;;;;;;;17.50;37.16;99360.44;1783725;77;21593;-64
2021/04/14 12:23:29;;;;;;;7.78;5.75;;;;;;;17.40;37.41;99364.73;1773211;79;21921;-63
2021/04/14 12:25:57;;;;;;;7.55;6.42;;;;;;;17.29;37.42;99356.23;1782603;77;21618;-62
2021/04/14 12:28:26;;;;;;;6.35;5.55;;;;;;;17.19;37.80;99356.08;1785832;77;21556;-63
2021/04/14 12:30:55;;;;;;;10.18;6.45;;;;;;;17.09;37.95;99358.59;1782050;78;21638;-63
2021/04/14 12:33:27;;;;;;;8.63;5.83;;;;;;;17.02;37.96;99359.16;1782530;77;21641;-61
2021/04/14 12:35:56;;;;;;;12.03;6.58;;;;;;;16.91;38.02;99348.86;1787557;77;21674;-60
2021/04/14 12:38:25;;;;;;;8.63;6.33;;;;;;;16.86;38.17;99354.14;1765575;78;21581;-60
2021/04/14 12:40:56;;;;;;;10.58;5.22;;;;;;;16.81;38.58;99351.78;1755770;78;21547;-60
2021/04/14 12:43:25;;;;;;;15.28;5.30;;;;;;;16.78;38.93;99348.01;1762557;78;21641;-62
2021/04/14 12:45:53;;;;;;;6.35;5.33;;;;;;;16.73;38.93;99347.52;1761557;78;21662;-60